createdAt,value
2022-12-03T00:02:07.587Z,68.28
2022-12-03T00:04:35.703Z,62.72
2022-12-03T00:07:02.870Z,61.60
2022-12-03T00:09:29.882Z,66.30
2022-12-03T00:11:57.046Z,64.35
2022-12-03T00:14:24.156Z,75.05
2022-12-03T00:16:51.621Z,68.10
2022-12-03T00:19:18.698Z,66.30
2022-12-03T00:21:45.739Z,66.60
2022-12-03T00:24:12.903Z,69.00
2022-12-03T00:26:40.096Z,67.72
2022-12-03T00:29:07.679Z,59.90
2022-12-03T00:31:35.041Z,66.53
2022-12-03T00:34:02.231Z,67.68
2022-12-03T00:36:29.409Z,61.70
2022-12-03T00:38:56.554Z,70.00
2022-12-03T00:41:23.790Z,57.53
2022-12-03T00:43:50.915Z,57.67
2022-12-03T00:46:21.319Z,67.35
2022-12-03T00:48:48.945Z,63.70
2022-12-03T00:51:16.162Z,65.97
2022-12-03T00:53:43.448Z,65.40
2022-12-03T00:56:11.111Z,56.63
2022-12-03T00:58:38.365Z,65.97
2022-12-03T01:01:05.860Z,60.92
2022-12-03T01:03:32.924Z,63.55
2022-12-03T01:06:00.221Z,62.00
2022-12-03T01:08:27.330Z,63.85
2022-12-03T01:10:54.630Z,63.45
2022-12-03T01:13:21.961Z,60.33
2022-12-03T01:15:49.053Z,65.68
2022-12-03T01:18:16.182Z,67.65
2022-12-03T01:20:43.338Z,61.50
2022-12-03T01:23:10.447Z,68.45
2022-12-03T01:25:37.510Z,64.25
2022-12-03T01:28:04.532Z,60.65
2022-12-03T01:31:17.760Z,66.22
2022-12-03T01:33:44.894Z,56.00
2022-12-03T01:36:11.967Z,62.35
2022-12-03T01:38:39.103Z,64.03
2022-12-03T01:41:11.704Z,68.20
2022-12-03T01:43:39.245Z,63.97
2022-12-03T01:46:06.559Z,65.03
2022-12-03T01:48:37.722Z,63.25
2022-12-03T01:51:05.116Z,65.45
2022-12-03T01:53:32.302Z,64.95
2022-12-03T01:55:59.610Z,66.78
2022-12-03T01:58:29.164Z,59.53
2022-12-03T02:01:02.332Z,69.13
2022-12-03T02:03:29.465Z,59.80
2022-12-03T02:05:57.009Z,63.08
2022-12-03T02:08:34.564Z,58.17
2022-12-03T02:11:28.434Z,59.30
2022-12-03T02:14:02.873Z,70.55
2022-12-03T02:16:30.759Z,62.67
2022-12-03T02:18:58.727Z,59.35
2022-12-03T02:21:51.140Z,67.90
2022-12-03T02:24:46.162Z,59.00
2022-12-03T02:27:13.548Z,66.60
2022-12-03T02:29:40.634Z,63.20
2022-12-03T02:32:08.071Z,60.83
2022-12-03T02:34:41.054Z,54.63
2022-12-03T02:37:15.534Z,66.45
2022-12-03T02:39:50.024Z,59.70
2022-12-03T02:42:36.396Z,65.97
2022-12-03T02:45:11.641Z,54.95
2022-12-03T02:47:46.737Z,62.28
2022-12-03T02:50:19.154Z,59.90
2022-12-03T02:55:17.587Z,56.03
2022-12-03T02:57:49.297Z,55.85
2022-12-03T03:00:18.788Z,58.78
2022-12-03T03:02:47.245Z,57.08
2022-12-03T03:05:16.790Z,52.33
2022-12-03T03:07:44.373Z,55.60
2022-12-03T03:10:15.796Z,56.38
2022-12-03T03:12:43.577Z,56.00
2022-12-03T03:15:12.008Z,62.47
2022-12-03T03:17:39.945Z,53.28
2022-12-03T03:20:09.379Z,65.90
2022-12-03T03:22:42.206Z,58.75
2022-12-03T03:25:14.469Z,60.35
2022-12-03T03:27:42.608Z,56.35
2022-12-03T03:30:11.739Z,55.38
2022-12-03T03:32:40.577Z,62.53
2022-12-03T03:35:09.895Z,57.53
2022-12-03T03:37:38.089Z,67.85
2022-12-03T03:40:06.787Z,58.20
2022-12-03T03:42:34.961Z,58.30
2022-12-03T03:45:02.282Z,56.20
2022-12-03T03:47:29.455Z,62.47
2022-12-03T03:49:56.838Z,62.85
2022-12-03T03:52:24.592Z,58.13
2022-12-03T03:54:52.961Z,60.45
2022-12-03T03:57:20.299Z,54.72
2022-12-03T03:59:47.351Z,56.88
2022-12-03T04:02:24.636Z,61.72
2022-12-03T04:04:52.264Z,54.30
2022-12-03T04:07:20.387Z,64.10
2022-12-03T04:09:47.526Z,53.67
2022-12-03T04:12:33.237Z,55.90
2022-12-03T04:15:00.810Z,47.83
2022-12-03T04:17:27.877Z,55.13
2022-12-03T04:19:54.942Z,54.88
2022-12-03T04:22:40.367Z,53.22
2022-12-03T04:25:28.855Z,49.90
2022-12-03T04:28:14.397Z,51.33
2022-12-03T04:30:41.580Z,52.90
2022-12-03T04:33:27.313Z,55.25
2022-12-03T04:35:54.547Z,53.20
2022-12-03T04:38:21.634Z,45.42
2022-12-03T04:41:00.896Z,53.60
2022-12-03T04:43:30.196Z,48.85
2022-12-03T04:45:57.992Z,60.53
2022-12-03T04:48:25.492Z,49.40
2022-12-03T04:50:53.221Z,50.33
2022-12-03T04:53:28.990Z,51.22
2022-12-03T04:56:04.516Z,56.72
2022-12-03T04:58:43.911Z,48.83
2022-12-03T05:05:43.735Z,45.95
2022-12-03T05:08:28.451Z,48.22
2022-12-03T05:11:39.090Z,48.53
2022-12-03T05:14:06.917Z,50.88
2022-12-03T05:16:34.294Z,51.88
2022-12-03T05:19:07.374Z,52.10
2022-12-03T05:21:48.737Z,45.83
2022-12-03T05:24:25.816Z,46.38
2022-12-03T05:26:56.158Z,46.22
2022-12-03T05:29:42.177Z,46.17
2022-12-03T05:32:09.517Z,47.03
2022-12-03T05:34:44.602Z,48.65
2022-12-03T05:37:32.357Z,55.17
2022-12-03T05:39:59.990Z,44.75
2022-12-03T05:42:47.412Z,54.13
2022-12-03T05:45:14.722Z,48.72
2022-12-03T05:47:52.430Z,52.30
2022-12-03T05:50:28.064Z,45.47
2022-12-03T05:53:17.607Z,56.75
2022-12-03T05:55:44.900Z,54.35
2022-12-03T05:58:13.179Z,56.92
2022-12-03T06:00:42.770Z,50.60
2022-12-03T06:03:11.444Z,53.35
2022-12-03T06:05:39.531Z,51.80
2022-12-03T06:08:06.897Z,53.25
2022-12-03T06:10:34.330Z,56.30
2022-12-03T06:13:03.395Z,56.13
2022-12-03T06:15:30.759Z,50.67
2022-12-03T06:18:00.459Z,51.92
2022-12-03T06:20:56.498Z,50.97
2022-12-03T06:23:23.618Z,56.22
2022-12-03T06:25:50.760Z,51.13
2022-12-03T06:28:29.102Z,53.83
2022-12-03T06:30:56.391Z,49.85
2022-12-03T06:33:23.561Z,62.22
2022-12-03T06:35:50.901Z,47.35
2022-12-03T06:38:18.300Z,51.10
2022-12-03T06:40:46.871Z,52.58
2022-12-03T06:43:14.259Z,56.30
2022-12-03T06:45:47.400Z,55.45
2022-12-03T06:48:15.292Z,55.58
2022-12-03T06:50:42.382Z,53.25
2022-12-03T06:53:09.437Z,54.42
2022-12-03T06:55:37.636Z,54.13
2022-12-03T06:58:04.755Z,55.47
2022-12-03T07:00:31.853Z,53.17
2022-12-03T07:02:59.030Z,61.45
2022-12-03T07:05:26.165Z,52.50
2022-12-03T07:07:55.310Z,51.90
2022-12-03T07:10:22.913Z,61.15
2022-12-03T07:12:49.943Z,51.20
2022-12-03T07:15:17.228Z,60.28
2022-12-03T07:17:44.346Z,55.25
2022-12-03T07:20:12.082Z,55.42
2022-12-03T07:22:39.383Z,51.35
2022-12-03T07:25:07.311Z,53.35
2022-12-03T07:27:34.469Z,50.50
2022-12-03T07:30:01.727Z,55.22
2022-12-03T07:32:28.832Z,53.28
2022-12-03T07:34:56.095Z,56.97
2022-12-03T07:37:23.642Z,51.20
2022-12-03T07:39:52.409Z,57.78
2022-12-03T07:42:19.506Z,49.85
2022-12-03T07:44:46.607Z,49.58
2022-12-03T07:47:14.153Z,45.88
2022-12-03T07:49:41.155Z,52.47
2022-12-03T07:52:08.331Z,57.15
2022-12-03T07:54:35.504Z,43.72
2022-12-03T07:57:02.661Z,49.90
2022-12-03T07:59:30.078Z,46.80
2022-12-03T08:01:57.306Z,54.00
2022-12-03T08:04:24.555Z,55.13
2022-12-03T08:06:51.621Z,52.85
2022-12-03T08:09:19.073Z,48.00
2022-12-03T08:11:49.188Z,46.88
2022-12-03T08:14:19.968Z,52.03
2022-12-03T08:16:48.021Z,53.17
2022-12-03T08:19:17.916Z,61.97
2022-12-03T08:21:45.719Z,52.53
2022-12-03T08:24:19.507Z,45.33
2022-12-03T08:26:48.963Z,45.72
2022-12-03T08:29:19.720Z,45.95
2022-12-03T08:31:55.477Z,51.58
2022-12-03T08:34:28.172Z,49.17
2022-12-03T08:37:09.492Z,40.67
2022-12-03T08:39:50.459Z,44.53
2022-12-03T08:42:42.095Z,49.60
2022-12-03T08:45:40.298Z,52.00
2022-12-03T08:48:26.937Z,46.38
2022-12-03T08:50:57.925Z,51.42
2022-12-03T08:54:01.494Z,47.08
2022-12-03T08:57:17.537Z,49.72
2022-12-03T09:28:06.218Z,52.85
2022-12-03T10:03:02.767Z,59.08
2022-12-03T10:05:30.583Z,67.28
2022-12-03T10:08:10.246Z,53.15
2022-12-03T10:10:41.861Z,53.63
2022-12-03T10:23:26.476Z,57.92
2022-12-03T10:27:12.798Z,54.42
2022-12-03T11:30:01.811Z,63.72
2022-12-03T11:32:38.160Z,62.25
2022-12-03T11:35:24.178Z,60.15
2022-12-03T11:37:52.292Z,56.72
2022-12-03T11:40:19.656Z,54.78
2022-12-03T11:42:49.158Z,69.75
2022-12-03T11:45:35.704Z,63.50
2022-12-03T11:48:16.172Z,61.97
2022-12-03T11:50:54.036Z,64.70
2022-12-03T11:53:26.517Z,62.45
2022-12-03T11:58:45.302Z,58.70
2022-12-03T12:01:15.731Z,58.08
2022-12-03T12:03:52.373Z,63.47
2022-12-03T12:06:21.530Z,61.58
2022-12-03T12:08:51.343Z,63.05
2022-12-03T12:11:30.008Z,56.30
2022-12-03T12:14:10.288Z,56.13
2022-12-03T12:16:51.129Z,61.00
2022-12-03T12:20:06.574Z,53.65
2022-12-03T12:22:38.182Z,68.95
2022-12-03T12:25:45.099Z,61.28
2022-12-03T12:28:28.951Z,62.33
2022-12-03T12:31:30.187Z,62.17
2022-12-03T12:34:03.328Z,62.63
2022-12-03T12:36:43.054Z,68.40
2022-12-03T12:39:15.825Z,59.97
2022-12-03T12:41:48.416Z,69.32
2022-12-03T12:44:15.676Z,66.35
2022-12-03T12:46:48.424Z,67.43
2022-12-03T12:49:16.161Z,67.03
2022-12-03T12:51:49.883Z,68.85
2022-12-03T12:54:19.007Z,71.32
2022-12-03T12:56:50.258Z,68.60
2022-12-03T12:59:21.458Z,63.35
2022-12-03T13:01:50.307Z,64.13
2022-12-03T13:04:21.497Z,62.78
2022-12-03T13:06:54.141Z,71.80
2022-12-03T13:11:59.671Z,62.95
2022-12-03T13:14:34.671Z,63.50
2022-12-03T13:17:13.616Z,58.15
2022-12-03T13:19:48.238Z,63.88
2022-12-03T13:22:23.055Z,63.53
2022-12-03T13:24:54.317Z,63.67
2022-12-03T13:27:29.949Z,68.47
2022-12-03T13:30:14.975Z,62.35
2022-12-03T13:32:43.521Z,61.30
2022-12-03T13:35:18.217Z,74.15
2022-12-03T13:37:45.414Z,68.88
2022-12-03T13:40:31.706Z,67.57
2022-12-03T13:43:03.807Z,70.75
2022-12-03T13:45:46.821Z,68.20
2022-12-03T13:48:27.489Z,69.10
2022-12-03T13:50:55.835Z,63.88
2022-12-03T13:53:33.272Z,68.82
2022-12-03T13:56:32.371Z,66.47
2022-12-03T13:59:01.444Z,64.82
2022-12-03T14:01:29.213Z,65.88
2022-12-03T14:03:57.134Z,62.60
2022-12-03T14:06:24.388Z,62.78
2022-12-03T14:08:51.555Z,64.85
2022-12-03T14:11:37.389Z,60.53
2022-12-03T14:14:04.734Z,60.22
2022-12-03T14:16:33.424Z,64.82
2022-12-03T14:19:00.669Z,61.10
2022-12-03T14:21:27.893Z,61.33
2022-12-03T14:24:10.374Z,59.53
2022-12-03T14:26:37.678Z,71.43
2022-12-03T14:29:08.569Z,57.08
2022-12-03T14:31:36.286Z,69.32
2022-12-03T14:34:04.419Z,64.47
2022-12-03T14:36:31.945Z,67.32
2022-12-03T14:38:59.143Z,70.60
2022-12-03T14:41:45.129Z,66.97
2022-12-03T14:44:12.439Z,59.47
2022-12-03T14:46:39.578Z,68.78
2022-12-03T14:49:07.059Z,65.72
2022-12-03T14:51:34.397Z,66.68
2022-12-03T14:54:01.778Z,67.97
2022-12-03T14:56:28.881Z,64.68
2022-12-03T14:58:56.092Z,67.35
2022-12-03T15:01:23.201Z,57.08
2022-12-03T15:03:51.730Z,58.40
2022-12-03T15:06:18.814Z,66.22
2022-12-03T15:08:49.273Z,66.80
2022-12-03T15:11:16.533Z,56.67
2022-12-03T15:13:43.772Z,67.78
2022-12-03T15:16:11.198Z,54.85
2022-12-03T15:18:38.384Z,61.20
2022-12-03T15:21:05.837Z,56.10
2022-12-03T15:23:43.757Z,53.25
2022-12-03T15:26:11.270Z,56.25
2022-12-03T15:28:46.713Z,55.33
2022-12-03T15:31:16.506Z,55.40
2022-12-03T15:33:45.803Z,47.60
2022-12-03T15:36:13.323Z,51.25
2022-12-03T15:38:41.156Z,55.13
2022-12-03T15:41:27.172Z,57.10
2022-12-03T15:43:55.194Z,50.47
2022-12-03T15:46:23.349Z,58.70
2022-12-03T15:48:50.843Z,61.10
2022-12-03T15:51:18.354Z,61.53
2022-12-03T15:53:45.669Z,72.47
2022-12-03T15:56:14.307Z,59.90
2022-12-03T15:58:42.590Z,61.30
2022-12-03T16:01:11.117Z,54.28
2022-12-03T16:03:38.332Z,64.63
2022-12-03T16:06:06.413Z,61.72
2022-12-03T16:08:33.609Z,58.95
2022-12-03T16:11:00.856Z,59.92
2022-12-03T16:13:30.503Z,63.80
2022-12-03T16:15:57.694Z,63.30
2022-12-03T16:18:25.139Z,61.13
2022-12-03T16:20:52.382Z,65.72
2022-12-03T16:23:19.624Z,73.28
2022-12-03T16:25:46.792Z,70.28
2022-12-03T16:28:14.058Z,74.10
2022-12-03T16:30:41.317Z,67.60
2022-12-03T16:33:08.485Z,64.03
2022-12-03T16:35:36.082Z,65.20
2022-12-03T16:38:25.212Z,62.92
2022-12-03T16:40:55.102Z,61.55
2022-12-03T16:43:22.228Z,65.70
2022-12-03T16:46:03.052Z,66.22
2022-12-03T16:48:30.587Z,69.03
2022-12-03T16:50:57.758Z,72.88
2022-12-03T16:53:25.606Z,71.78
2022-12-03T16:55:52.789Z,58.72
2022-12-03T16:58:21.377Z,74.85
2022-12-03T17:00:49.807Z,68.93
2022-12-03T17:03:20.059Z,65.85
2022-12-03T17:05:47.407Z,74.25
2022-12-03T17:08:16.149Z,66.78
2022-12-03T17:10:44.470Z,70.70
2022-12-03T17:13:12.475Z,70.72
2022-12-03T17:15:40.624Z,67.68
2022-12-03T17:18:09.150Z,69.57
2022-12-03T17:20:36.940Z,65.65
2022-12-03T17:23:04.449Z,67.15
2022-12-03T17:25:31.685Z,73.63
2022-12-03T17:27:58.774Z,61.50
2022-12-03T17:30:26.022Z,67.80
2022-12-03T17:32:53.140Z,65.45
2022-12-03T17:35:20.329Z,75.00
2022-12-03T17:37:47.964Z,66.65
2022-12-03T17:40:17.250Z,72.97
2022-12-03T17:42:44.640Z,78.30
2022-12-03T17:45:12.714Z,67.93
2022-12-03T17:47:39.934Z,62.08
2022-12-03T17:50:08.344Z,73.22
2022-12-03T17:52:35.708Z,71.32
2022-12-03T17:55:15.680Z,77.68
2022-12-03T17:58:20.742Z,76.20
2022-12-03T18:00:48.414Z,78.13
2022-12-03T18:03:15.450Z,75.47
2022-12-03T18:05:42.466Z,70.43
2022-12-03T18:08:09.685Z,75.50
2022-12-03T18:10:37.226Z,69.05
2022-12-03T18:13:04.292Z,65.50
2022-12-03T18:15:31.906Z,72.80
2022-12-03T18:17:59.067Z,74.75
2022-12-03T18:20:26.470Z,71.20
2022-12-03T18:22:53.664Z,73.72
2022-12-03T18:25:20.789Z,72.00
2022-12-03T18:27:48.083Z,65.30
2022-12-03T18:30:15.379Z,72.72
2022-12-03T18:32:42.462Z,77.03
2022-12-03T18:35:09.940Z,69.70
2022-12-03T18:37:37.460Z,72.43
2022-12-03T18:40:12.676Z,62.17
2022-12-03T18:42:40.004Z,75.03
2022-12-03T18:45:11.216Z,70.95
2022-12-03T18:47:38.644Z,70.50
2022-12-03T18:50:09.550Z,67.93
2022-12-03T18:52:36.762Z,72.28
2022-12-03T18:55:05.146Z,68.40
2022-12-03T18:57:32.420Z,72.50
2022-12-03T18:59:59.533Z,65.25
2022-12-03T19:03:00.714Z,73.20
2022-12-03T19:05:13.894Z,73.07
2022-12-03T19:07:43.222Z,70.40
2022-12-03T19:10:12.382Z,59.17
2022-12-03T19:12:39.565Z,65.40
2022-12-03T19:15:07.928Z,73.97
2022-12-03T19:17:35.478Z,65.28
2022-12-03T19:20:03.294Z,77.30
2022-12-03T19:22:30.522Z,68.32
2022-12-03T19:24:57.603Z,75.45
2022-12-03T19:27:24.786Z,76.30
2022-12-03T19:29:52.114Z,79.07
2022-12-03T19:32:19.645Z,63.17
2022-12-03T19:34:46.745Z,70.30
2022-12-03T19:37:14.383Z,68.53
2022-12-03T19:40:51.651Z,68.47
2022-12-03T19:46:38.382Z,68.35
2022-12-03T19:53:42.694Z,67.78
2022-12-03T19:56:16.971Z,69.97
2022-12-03T19:58:46.721Z,68.18
2022-12-03T20:01:41.633Z,68.28
2022-12-03T20:04:29.609Z,58.80
2022-12-03T20:06:57.002Z,68.95
2022-12-03T20:09:24.113Z,64.55
2022-12-03T20:11:51.932Z,70.40
2022-12-03T20:14:19.195Z,67.40
2022-12-03T20:16:47.239Z,66.68
2022-12-03T20:19:17.886Z,66.82
2022-12-03T20:21:44.990Z,67.72
2022-12-03T20:24:17.195Z,59.05
2022-12-03T20:26:44.990Z,64.18
2022-12-03T20:29:12.418Z,62.28
2022-12-03T20:31:40.087Z,55.45
2022-12-03T20:34:07.299Z,62.58
2022-12-03T20:36:34.804Z,63.97
2022-12-03T20:39:07.212Z,67.05
2022-12-03T20:44:03.233Z,63.00
2022-12-03T20:46:32.214Z,65.35
2022-12-03T20:49:00.352Z,70.05
2022-12-03T20:51:30.888Z,73.35
2022-12-03T20:54:00.886Z,86.65
2022-12-03T20:56:32.018Z,90.43
2022-12-03T20:59:06.660Z,83.68
2022-12-03T21:01:36.115Z,71.50
2022-12-03T21:04:04.759Z,71.55
2022-12-03T21:06:35.784Z,78.25
2022-12-03T21:09:06.284Z,66.60
2022-12-03T21:11:35.528Z,72.30
2022-12-03T21:14:04.163Z,61.65
2022-12-03T21:17:06.559Z,76.38
2022-12-03T21:19:26.687Z,74.10
2022-12-03T21:21:53.882Z,70.93
2022-12-03T21:24:21.005Z,73.90
2022-12-03T21:26:50.268Z,71.35
2022-12-03T21:29:18.210Z,74.93
2022-12-03T21:31:45.450Z,80.10
2022-12-03T21:34:12.985Z,84.15
2022-12-03T21:36:40.493Z,76.10
2022-12-03T21:39:08.187Z,70.13
2022-12-03T21:41:35.654Z,75.47
2022-12-03T21:44:03.326Z,72.47
2022-12-03T21:47:11.574Z,77.72
2022-12-03T21:49:19.464Z,74.35
2022-12-03T21:51:47.027Z,75.90
2022-12-03T21:54:15.257Z,82.68
2022-12-03T21:56:42.360Z,77.70
2022-12-03T21:59:09.504Z,74.28
2022-12-03T22:01:36.698Z,81.40
2022-12-03T22:04:04.515Z,77.13
2022-12-03T22:06:31.809Z,83.90
2022-12-03T22:08:58.852Z,88.57
2022-12-03T22:11:25.905Z,83.88
2022-12-03T22:13:54.490Z,87.18
2022-12-03T22:16:22.185Z,93.18
2022-12-03T22:18:50.273Z,83.65
2022-12-03T22:21:20.187Z,77.10
2022-12-03T22:23:47.755Z,78.15
2022-12-03T22:26:18.767Z,97.18
2022-12-03T22:28:49.693Z,78.75
2022-12-03T22:31:18.812Z,83.20
2022-12-03T22:33:48.488Z,80.57
2022-12-03T22:36:21.605Z,86.90
2022-12-03T22:38:51.052Z,87.22
2022-12-03T22:41:19.900Z,82.10
2022-12-03T22:43:48.589Z,77.65
2022-12-03T22:46:17.044Z,86.38
2022-12-03T22:48:46.756Z,89.55
2022-12-03T22:51:24.771Z,83.43
2022-12-03T22:53:59.706Z,84.03
2022-12-03T22:56:29.579Z,83.18
2022-12-03T22:58:57.567Z,88.82
2022-12-03T23:01:30.632Z,85.82
2022-12-03T23:03:58.167Z,85.45
2022-12-03T23:06:25.899Z,86.05
2022-12-03T23:08:53.653Z,82.35
2022-12-03T23:11:21.285Z,84.80
2022-12-03T23:13:48.762Z,73.82
2022-12-03T23:16:23.636Z,77.80
2022-12-03T23:18:51.006Z,80.78
2022-12-03T23:21:29.007Z,82.97
2022-12-03T23:23:59.378Z,85.82
2022-12-03T23:26:27.675Z,85.60
2022-12-03T23:28:55.068Z,71.20
2022-12-03T23:31:29.729Z,89.05
2022-12-03T23:33:59.189Z,73.15
2022-12-03T23:36:29.110Z,81.97
2022-12-03T23:38:56.307Z,83.75
2022-12-03T23:41:25.401Z,87.07
2022-12-03T23:43:52.936Z,83.95
2022-12-03T23:46:26.619Z,89.28
2022-12-03T23:48:54.172Z,85.53
2022-12-03T23:51:24.506Z,86.82
2022-12-03T23:53:53.177Z,85.18
2022-12-03T23:56:27.674Z,69.72
2022-12-03T23:58:56.454Z,86.03
